Warren Jr — WDH4232 — position and weather

sailwx.info

Track history (hours):
 
Tides and Currents Weather Stations Pressure Air Temp Water Temp Dewpoint Dewpoint Depression Visibility Wind Speed Wind Dir Waves Ship Positions

Warren Jr

Owner: Warren Jr, LLC, Cape May, NJ. More information available from US FCC via Universal Licensing System and Coast Guard Vessel Documentation Center.

Last reported at 2017-Dec-11 14:20 UTC. Time now 2017-Dec-12 21:58 UTC.
Position N 42°23' W 071°03'.

Length 46 m; draft 3.2 m.

MMSI: 367615560.

Date/timePositionNaut miles runAvg speedWind from/ knotsBaromVisibWave heightAir tempDewpointWater temp
2017-Dec-11 14:20N 42°23' W 071°03'0 0.0
2017-Dec-11 12:53N 42°23' W 071°03'0 0.0
2017-Dec-11 12:29N 42°23' W 071°03'0 0.0
2017-Dec-11 11:53N 42°23' W 071°03'0 0.0
2017-Dec-11 11:23N 42°23' W 071°03'0 0.0
2017-Dec-11 08:56N 42°23' W 071°03'0 0.0
2017-Dec-11 08:17N 42°23' W 071°03'0 0.0
2017-Dec-11 07:41N 42°23' W 071°03'0 0.0
2017-Dec-11 07:29N 42°23' W 071°03'0 0.0
2017-Dec-11 06:56N 42°23' W 071°03'0 0.0
2017-Dec-11 06:29N 42°23' W 071°03'0 0.0
2017-Dec-11 05:56N 42°23' W 071°03'0 0.0
2017-Dec-11 05:23N 42°23' W 071°03'0 0.0
2017-Dec-11 04:59N 42°23' W 071°03'0 0.0
2017-Dec-11 04:29N 42°23' W 071°03'0 0.0
2017-Dec-11 03:59N 42°23' W 071°03'0 0.0
2017-Dec-11 03:29N 42°23' W 071°03'0 0.0
2017-Dec-11 02:59N 42°23' W 071°03'0 0.0
2017-Dec-11 02:29N 42°23' W 071°03'0 0.0
2017-Dec-11 01:26N 42°23' W 071°03'0 0.0
2017-Dec-11 00:50N 42°23' W 071°03'0 0.0
2017-Dec-11 00:29N 42°23' W 071°03'0 0.0
2017-Dec-10 23:53N 42°23' W 071°03'0 0.0
2017-Dec-10 22:38N 42°23' W 071°03'0 0.0
2017-Dec-10 22:23N 42°23' W 071°03'0 0.0
2017-Dec-10 21:59N 42°23' W 071°03'0 0.0
2017-Dec-10 21:29N 42°23' W 071°03'0 0.0
2017-Dec-10 20:11N 42°23' W 071°03'0 0.0
2017-Dec-10 19:47N 42°23' W 071°03'0 0.0
2017-Dec-10 19:29N 42°23' W 071°03'0 0.0
2017-Dec-10 18:59N 42°23' W 071°03'0 0.0
2017-Dec-10 18:29N 42°23' W 071°03'0 0.0
2017-Dec-10 16:11N 42°23' W 071°03'0 0.0
2017-Dec-10 14:08N 42°23' W 071°03'0 0.0
2017-Dec-10 13:56N 42°23' W 071°03'0 0.0
2017-Dec-10 12:17N 42°23' W 071°03'0 0.0
2017-Dec-10 09:50N 42°23' W 071°03'0 0.0
2017-Dec-10 09:29N 42°23' W 071°03'0 0.0
2017-Dec-10 08:44N 42°23' W 071°03'0 0.0
2017-Dec-10 08:29N 42°23' W 071°03'0 0.0
2017-Dec-10 07:35N 42°23' W 071°03'0 0.0
2017-Dec-10 07:29N 42°23' W 071°03'0 0.0
2017-Dec-10 06:35N 42°23' W 071°03'0 0.0
2017-Dec-10 06:29N 42°23' W 071°03'0 0.0
2017-Dec-09 21:08N 42°23' W 071°03'0 0.0
2017-Dec-09 20:44N 42°23' W 071°03'0 0.0
2017-Dec-09 20:19N 42°23' W 071°03'0 0.0
2017-Dec-09 19:05N 42°23' W 071°03'0 0.0
2017-Dec-09 18:50N 42°23' W 071°03'0 0.0
2017-Dec-09 18:20N 42°23' W 071°03'0 0.0
2017-Dec-09 14:05N 42°23' W 071°03'0 0.0
2017-Dec-09 13:41N 42°23' W 071°03'0 0.0
2017-Dec-09 13:20N 42°23' W 071°03'0 0.0
2017-Dec-09 03:46N 42°23' W 071°03'0 0.0
2017-Dec-08 17:43N 42°23' W 071°03'0 0.0
2017-Dec-08 17:17N 42°23' W 071°03'0 0.4
2017-Dec-08 16:59N 42°23' W 071°03'4 7.3
2017-Dec-08 16:29N 42°20' W 070°60'510.1
2017-Dec-08 15:58N 42°23' W 070°53'1 3.0
2017-Dec-08 15:29N 42°24' W 070°52'0 1.0
2017-Dec-08 15:00N 42°24' W 070°53'2 3.0
2017-Dec-08 14:29N 42°23' W 070°55'4 8.9
2017-Dec-08 14:00N 42°20' W 070°59'4 7.7
2017-Dec-08 13:30N 42°23' W 071°03'0 0.2
2017-Dec-08 12:03N 42°23' W 071°03'0 0.0
2017-Dec-08 11:03N 42°23' W 071°03'0 0.0
2017-Dec-08 09:33N 42°23' W 071°03'0 0.0
2017-Dec-08 09:03N 42°23' W 071°03'0 0.0
2017-Dec-08 08:45N 42°23' W 071°03'0 0.0
2017-Dec-08 08:06N 42°23' W 071°03'0 0.0
2017-Dec-08 07:57N 42°23' W 071°03'0 0.0
2017-Dec-08 07:30N 42°23' W 071°03'0 0.0
2017-Dec-08 06:51N 42°23' W 071°03'0 0.0
2017-Dec-08 06:30N 42°23' W 071°03'0 0.0
2017-Dec-08 05:51N 42°23' W 071°03'0 0.0
2017-Dec-08 05:27N 42°23' W 071°03'0 0.0
2017-Dec-08 02:27N 42°23' W 071°03'0 0.0
2017-Dec-08 01:54N 42°23' W 071°03'0 0.0
2017-Dec-08 01:18N 42°23' W 071°03'0 0.0
2017-Dec-08 00:51N 42°23' W 071°03'0 0.0
2017-Dec-07 21:15N 42°23' W 071°03'0 0.0
2017-Dec-07 20:51N 42°23' W 071°03'0 0.0
2017-Dec-07 20:21N 42°23' W 071°03'0 0.0
2017-Dec-07 19:51N 42°23' W 071°03'0 0.0
2017-Dec-07 19:27N 42°23' W 071°03'0 0.0
2017-Dec-07 19:00N 42°23' W 071°03'0 0.0
2017-Dec-07 18:30N 42°23' W 071°03'0 0.0
2017-Dec-07 12:48N 42°23' W 071°03'0 0.0
2017-Dec-07 12:15N 42°23' W 071°03'0 0.0
2017-Dec-07 11:45N 42°23' W 071°03'0 0.0
2017-Dec-07 11:18N 42°23' W 071°03'0 0.0
2017-Dec-07 10:15N 42°23' W 071°03'0 0.0
2017-Dec-07 10:00N 42°23' W 071°03'0 0.0
2017-Dec-07 09:30N 42°23' W 071°03'0 0.0
2017-Dec-07 08:36N 42°23' W 071°03'0 0.0
2017-Dec-07 08:30N 42°23' W 071°03'0 0.0
2017-Dec-07 07:57N 42°23' W 071°03'0 0.0
2017-Dec-07 07:24N 42°23' W 071°03'0 0.0
2017-Dec-07 06:57N 42°23' W 071°03'0 0.0
2017-Dec-07 06:30N 42°23' W 071°03'0 0.0
2017-Dec-07 05:54N 42°23' W 071°03'0 0.0
2017-Dec-07 05:24N 42°23' W 071°03'0 0.0
2017-Dec-07 05:00N 42°23' W 071°03'0 0.0
2017-Dec-07 04:30N 42°23' W 071°03'0 0.0
2017-Dec-07 04:00N 42°23' W 071°03'0 0.0
2017-Dec-07 03:27N 42°23' W 071°03'0 0.0
2017-Dec-07 02:03N 42°23' W 071°03'0 0.0
2017-Dec-07 01:51N 42°23' W 071°03'0 0.0
2017-Dec-07 01:15N 42°23' W 071°03'0 0.0
2017-Dec-07 00:51N 42°23' W 071°03'0 0.0
2017-Dec-07 00:27N 42°23' W 071°03'0 0.0
2017-Dec-07 00:00N 42°23' W 071°03'0 0.0
2017-Dec-06 23:30N 42°23' W 071°03'0 0.0
2017-Dec-06 23:00N 42°23' W 071°03'0 0.0
2017-Dec-06 22:30N 42°23' W 071°03'0 0.0
2017-Dec-06 21:57N 42°23' W 071°03'0 0.0
2017-Dec-06 20:45N 42°23' W 071°03'  
2017-Dec-04 10:24N 42°23' W 071°03'0 0.0
2017-Dec-04 09:57N 42°23' W 071°03'0 0.0
2017-Dec-04 09:27N 42°23' W 071°03'0 0.0
2017-Dec-04 09:00N 42°23' W 071°03'0 0.0
2017-Dec-04 08:27N 42°23' W 071°03'0 0.0
2017-Dec-04 07:21N 42°23' W 071°03'0 0.0
2017-Dec-04 04:15N 42°23' W 071°03'0 0.0
2017-Dec-04 03:57N 42°23' W 071°03'0 0.0
2017-Dec-04 03:27N 42°23' W 071°03'0 0.0
2017-Dec-04 02:57N 42°23' W 071°03'0 0.0
2017-Dec-04 02:09N 42°23' W 071°03'0 0.0
2017-Dec-04 01:57N 42°23' W 071°03'0 0.0
2017-Dec-04 01:09N 42°23' W 071°03'0 0.0
2017-Dec-04 00:54N 42°23' W 071°03'0 0.0
2017-Dec-04 00:30N 42°23' W 071°03'0 0.0
2017-Dec-03 23:57N 42°23' W 071°03'0 0.0
2017-Dec-03 23:24N 42°23' W 071°03'0 0.0
2017-Dec-03 23:00N 42°23' W 071°03'0 0.7
2017-Dec-03 22:30N 42°23' W 071°03'4 8.3
2017-Dec-03 22:00N 42°20' W 070°58'5 9.1
2017-Dec-03 21:30N 42°23' W 070°54'4 8.1
2017-Dec-03 21:00N 42°26' W 070°51'1 2.5
2017-Dec-03 20:30N 42°26' W 070°52'1 1.1
2017-Dec-03 20:00N 42°26' W 070°51'0 0.7
2017-Dec-03 19:30N 42°26' W 070°52'0 0.4
2017-Dec-03 19:00N 42°27' W 070°52'0 1.0
2017-Dec-03 18:30N 42°27' W 070°51'0 0.3
2017-Dec-03 18:00N 42°27' W 070°51'0 0.9
2017-Dec-03 17:30N 42°26' W 070°51'0 0.6
2017-Dec-03 17:00N 42°26' W 070°51'0 0.3
2017-Dec-03 16:30N 42°26' W 070°51'0 0.6
2017-Dec-03 16:00N 42°26' W 070°51'0 0.3
2017-Dec-03 15:29N 42°26' W 070°51'0 0.2
2017-Dec-03 15:00N 42°26' W 070°51'4 8.8
2017-Dec-03 14:30N 42°23' W 070°55'4 8.6
2017-Dec-03 13:59N 42°20' W 070°59'4 7.8
2017-Dec-03 13:30N 42°23' W 071°03'0 0.7
2017-Dec-03 13:00N 42°23' W 071°03'0 0.0
2017-Dec-03 12:30N 42°23' W 071°03'0 0.0
2017-Dec-03 12:00N 42°23' W 071°03'0 0.0
2017-Dec-03 11:30N 42°23' W 071°03'0 0.0
2017-Dec-03 10:59N 42°23' W 071°03'0 0.0
2017-Dec-03 10:29N 42°23' W 071°03'0 0.0
2017-Dec-03 09:59N 42°23' W 071°03'0 0.0
2017-Dec-03 09:30N 42°23' W 071°03'0 0.0
2017-Dec-03 08:52N 42°23' W 071°03'0 0.0
2017-Dec-03 08:29N 42°23' W 071°03'0 0.0
2017-Dec-03 08:00N 42°23' W 071°03'0 0.0
2017-Dec-03 07:30N 42°23' W 071°03'0 0.0
2017-Dec-03 07:00N 42°23' W 071°03'0 0.0
2017-Dec-03 06:30N 42°23' W 071°03'0 0.0
2017-Dec-03 06:00N 42°23' W 071°03'0 0.0
2017-Dec-03 05:30N 42°23' W 071°03'0 0.0
2017-Dec-03 05:00N 42°23' W 071°03'0 0.0
2017-Dec-03 04:30N 42°23' W 071°03'0 0.0
2017-Dec-03 04:00N 42°23' W 071°03'0 0.0
2017-Dec-03 03:30N 42°23' W 071°03'0 0.0
2017-Dec-03 03:00N 42°23' W 071°03'0 0.0
2017-Dec-03 02:30N 42°23' W 071°03'0 0.0
2017-Dec-03 02:00N 42°23' W 071°03'0 0.0
2017-Dec-03 01:30N 42°23' W 071°03'0 0.0
2017-Dec-03 01:00N 42°23' W 071°03'0 0.0
2017-Dec-03 00:30N 42°23' W 071°03'0 0.0
2017-Dec-03 00:00N 42°23' W 071°03'0 0.0
2017-Dec-02 23:30N 42°23' W 071°03'0 0.0
2017-Dec-02 23:00N 42°23' W 071°03'0 0.0
2017-Dec-02 22:31N 42°23' W 071°03'0 0.0
2017-Dec-02 22:00N 42°23' W 071°03'0 0.0
2017-Dec-02 21:30N 42°23' W 071°03'0 0.0
2017-Dec-02 21:00N 42°23' W 071°03'0 0.0
2017-Dec-02 20:30N 42°23' W 071°03'0 0.0
2017-Dec-02 20:00N 42°23' W 071°03'0 0.0
2017-Dec-02 19:30N 42°23' W 071°03'0 0.0
2017-Dec-02 19:00N 42°23' W 071°03'0 0.0
2017-Dec-02 18:30N 42°23' W 071°03'0 0.0
2017-Dec-02 18:00N 42°23' W 071°03'0 0.0
2017-Dec-02 17:30N 42°23' W 071°03'0 0.0
2017-Dec-02 17:00N 42°23' W 071°03'0 0.0
2017-Dec-02 16:30N 42°23' W 071°03'0 0.0
2017-Dec-02 16:00N 42°23' W 071°03'0 0.0
2017-Dec-02 15:30N 42°23' W 071°03'0 0.0
2017-Dec-02 15:00N 42°23' W 071°03'0 0.0
2017-Dec-02 14:30N 42°23' W 071°03'0 0.0
2017-Dec-02 14:00N 42°23' W 071°03'0 0.0
2017-Dec-02 13:30N 42°23' W 071°03'0 0.0
2017-Dec-02 13:00N 42°23' W 071°03'0 0.0
2017-Dec-02 12:30N 42°23' W 071°03'0 0.0
2017-Dec-02 12:00N 42°23' W 071°03'0 0.0
2017-Dec-02 11:30N 42°23' W 071°03'0 0.0
2017-Dec-02 11:00N 42°23' W 071°03'0 0.0
2017-Dec-02 10:30N 42°23' W 071°03'0 0.0
2017-Dec-02 10:00N 42°23' W 071°03'0 0.0
2017-Dec-02 09:30N 42°23' W 071°03'0 0.0
2017-Dec-02 09:00N 42°23' W 071°03'0 0.0
2017-Dec-02 08:28N 42°23' W 071°03'0 0.0
2017-Dec-02 08:00N 42°23' W 071°03'0 0.0
2017-Dec-02 07:30N 42°23' W 071°03'0 0.0
2017-Dec-02 07:00N 42°23' W 071°03'0 0.0
2017-Dec-02 06:30N 42°23' W 071°03'0 0.0
2017-Dec-02 06:01N 42°23' W 071°03'0 0.0
2017-Dec-02 05:30N 42°23' W 071°03'0 0.0
2017-Dec-02 05:00N 42°23' W 071°03'0 0.0
2017-Dec-02 04:30N 42°23' W 071°03'0 0.0
2017-Dec-02 04:00N 42°23' W 071°03'0 0.0
2017-Dec-02 03:30N 42°23' W 071°03'0 0.0
2017-Dec-02 03:00N 42°23' W 071°03'0 0.0
2017-Dec-02 02:30N 42°23' W 071°03'0 0.0
2017-Dec-02 02:00N 42°23' W 071°03'0 0.0
2017-Dec-02 01:30N 42°23' W 071°03'0 0.0
2017-Dec-02 01:00N 42°23' W 071°03'0 0.0
2017-Dec-02 00:30N 42°23' W 071°03'0 0.0
2017-Dec-02 00:00N 42°23' W 071°03'0 0.0
2017-Dec-01 23:30N 42°23' W 071°03'0 0.0
2017-Dec-01 23:00N 42°23' W 071°03'0 0.0
2017-Dec-01 22:29N 42°23' W 071°03'0 0.0
2017-Dec-01 22:00N 42°23' W 071°03'0 0.0
2017-Dec-01 21:30N 42°23' W 071°03'0 0.0
2017-Dec-01 21:00N 42°23' W 071°03'0 0.0
2017-Dec-01 20:30N 42°23' W 071°03'0 0.0
2017-Dec-01 20:00N 42°23' W 071°03'0 0.0
2017-Dec-01 19:29N 42°23' W 071°03'0 0.0
2017-Dec-01 19:00N 42°23' W 071°03'0 0.0
2017-Dec-01 18:24N 42°23' W 071°03'0 0.0
2017-Dec-01 17:55N 42°23' W 071°03'0 0.0
2017-Dec-01 17:18N 42°23' W 071°03'0 0.0
2017-Dec-01 16:44N 42°23' W 071°03'0 0.0
2017-Dec-01 16:27N 42°23' W 071°03'0 0.0
2017-Dec-01 15:26N 42°23' W 071°03'0 0.0
2017-Dec-01 14:58N 42°23' W 071°03'0 0.0
2017-Dec-01 14:30N 42°23' W 071°03'  
Track history (hours):
 
Tides and Currents Weather Stations Pressure Air Temp Water Temp Dewpoint Dewpoint Depression Visibility Wind Speed Wind Dir Waves Ship Positions

Warren Jr

Owner: Warren Jr, LLC, Cape May, NJ. More information available from US FCC via Universal Licensing System and Coast Guard Vessel Documentation Center.

Last reported at 2017-Dec-11 14:20 UTC. Time now 2017-Dec-12 21:58 UTC.
Position N 42°23' W 071°03'.

Length 46 m; draft 3.2 m.

MMSI: 367615560.

Date/timePositionNaut miles runAvg speedWind from/ knotsBaromVisibWave heightAir tempDewpointWater temp
2017-Dec-11 14:20N 42°23' W 071°03'0 0.0
2017-Dec-11 12:53N 42°23' W 071°03'0 0.0
2017-Dec-11 12:29N 42°23' W 071°03'0 0.0
2017-Dec-11 11:53N 42°23' W 071°03'0 0.0
2017-Dec-11 11:23N 42°23' W 071°03'0 0.0
2017-Dec-11 08:56N 42°23' W 071°03'0 0.0
2017-Dec-11 08:17N 42°23' W 071°03'0 0.0
2017-Dec-11 07:41N 42°23' W 071°03'0 0.0
2017-Dec-11 07:29N 42°23' W 071°03'0 0.0
2017-Dec-11 06:56N 42°23' W 071°03'0 0.0
2017-Dec-11 06:29N 42°23' W 071°03'0 0.0
2017-Dec-11 05:56N 42°23' W 071°03'0 0.0
2017-Dec-11 05:23N 42°23' W 071°03'0 0.0
2017-Dec-11 04:59N 42°23' W 071°03'0 0.0
2017-Dec-11 04:29N 42°23' W 071°03'0 0.0
2017-Dec-11 03:59N 42°23' W 071°03'0 0.0
2017-Dec-11 03:29N 42°23' W 071°03'0 0.0
2017-Dec-11 02:59N 42°23' W 071°03'0 0.0
2017-Dec-11 02:29N 42°23' W 071°03'0 0.0
2017-Dec-11 01:26N 42°23' W 071°03'0 0.0
2017-Dec-11 00:50N 42°23' W 071°03'0 0.0
2017-Dec-11 00:29N 42°23' W 071°03'0 0.0
2017-Dec-10 23:53N 42°23' W 071°03'0 0.0
2017-Dec-10 22:38N 42°23' W 071°03'0 0.0
2017-Dec-10 22:23N 42°23' W 071°03'0 0.0
2017-Dec-10 21:59N 42°23' W 071°03'0 0.0
2017-Dec-10 21:29N 42°23' W 071°03'0 0.0
2017-Dec-10 20:11N 42°23' W 071°03'0 0.0
2017-Dec-10 19:47N 42°23' W 071°03'0 0.0
2017-Dec-10 19:29N 42°23' W 071°03'0 0.0
2017-Dec-10 18:59N 42°23' W 071°03'0 0.0
2017-Dec-10 18:29N 42°23' W 071°03'0 0.0
2017-Dec-10 16:11N 42°23' W 071°03'0 0.0
2017-Dec-10 14:08N 42°23' W 071°03'0 0.0
2017-Dec-10 13:56N 42°23' W 071°03'0 0.0
2017-Dec-10 12:17N 42°23' W 071°03'0 0.0
2017-Dec-10 09:50N 42°23' W 071°03'0 0.0
2017-Dec-10 09:29N 42°23' W 071°03'0 0.0
2017-Dec-10 08:44N 42°23' W 071°03'0 0.0
2017-Dec-10 08:29N 42°23' W 071°03'0 0.0
2017-Dec-10 07:35N 42°23' W 071°03'0 0.0
2017-Dec-10 07:29N 42°23' W 071°03'0 0.0
2017-Dec-10 06:35N 42°23' W 071°03'0 0.0
2017-Dec-10 06:29N 42°23' W 071°03'0 0.0
2017-Dec-09 21:08N 42°23' W 071°03'0 0.0
2017-Dec-09 20:44N 42°23' W 071°03'0 0.0
2017-Dec-09 20:19N 42°23' W 071°03'0 0.0
2017-Dec-09 19:05N 42°23' W 071°03'0 0.0
2017-Dec-09 18:50N 42°23' W 071°03'0 0.0
2017-Dec-09 18:20N 42°23' W 071°03'0 0.0
2017-Dec-09 14:05N 42°23' W 071°03'0 0.0
2017-Dec-09 13:41N 42°23' W 071°03'0 0.0
2017-Dec-09 13:20N 42°23' W 071°03'0 0.0
2017-Dec-09 03:46N 42°23' W 071°03'0 0.0
2017-Dec-08 17:43N 42°23' W 071°03'0 0.0
2017-Dec-08 17:17N 42°23' W 071°03'0 0.4
2017-Dec-08 16:59N 42°23' W 071°03'4 7.3
2017-Dec-08 16:29N 42°20' W 070°60'510.1
2017-Dec-08 15:58N 42°23' W 070°53'1 3.0
2017-Dec-08 15:29N 42°24' W 070°52'0 1.0
2017-Dec-08 15:00N 42°24' W 070°53'2 3.0
2017-Dec-08 14:29N 42°23' W 070°55'4 8.9
2017-Dec-08 14:00N 42°20' W 070°59'4 7.7
2017-Dec-08 13:30N 42°23' W 071°03'0 0.2
2017-Dec-08 12:03N 42°23' W 071°03'0 0.0
2017-Dec-08 11:03N 42°23' W 071°03'0 0.0
2017-Dec-08 09:33N 42°23' W 071°03'0 0.0
2017-Dec-08 09:03N 42°23' W 071°03'0 0.0
2017-Dec-08 08:45N 42°23' W 071°03'0 0.0
2017-Dec-08 08:06N 42°23' W 071°03'0 0.0
2017-Dec-08 07:57N 42°23' W 071°03'0 0.0
2017-Dec-08 07:30N 42°23' W 071°03'0 0.0
2017-Dec-08 06:51N 42°23' W 071°03'0 0.0
2017-Dec-08 06:30N 42°23' W 071°03'0 0.0
2017-Dec-08 05:51N 42°23' W 071°03'0 0.0
2017-Dec-08 05:27N 42°23' W 071°03'0 0.0
2017-Dec-08 02:27N 42°23' W 071°03'0 0.0
2017-Dec-08 01:54N 42°23' W 071°03'0 0.0
2017-Dec-08 01:18N 42°23' W 071°03'0 0.0
2017-Dec-08 00:51N 42°23' W 071°03'0 0.0
2017-Dec-07 21:15N 42°23' W 071°03'0 0.0
2017-Dec-07 20:51N 42°23' W 071°03'0 0.0
2017-Dec-07 20:21N 42°23' W 071°03'0 0.0
2017-Dec-07 19:51N 42°23' W 071°03'0 0.0
2017-Dec-07 19:27N 42°23' W 071°03'0 0.0
2017-Dec-07 19:00N 42°23' W 071°03'0 0.0
2017-Dec-07 18:30N 42°23' W 071°03'0 0.0
2017-Dec-07 12:48N 42°23' W 071°03'0 0.0
2017-Dec-07 12:15N 42°23' W 071°03'0 0.0
2017-Dec-07 11:45N 42°23' W 071°03'0 0.0
2017-Dec-07 11:18N 42°23' W 071°03'0 0.0
2017-Dec-07 10:15N 42°23' W 071°03'0 0.0
2017-Dec-07 10:00N 42°23' W 071°03'0 0.0
2017-Dec-07 09:30N 42°23' W 071°03'0 0.0
2017-Dec-07 08:36N 42°23' W 071°03'0 0.0
2017-Dec-07 08:30N 42°23' W 071°03'0 0.0
2017-Dec-07 07:57N 42°23' W 071°03'0 0.0
2017-Dec-07 07:24N 42°23' W 071°03'0 0.0
2017-Dec-07 06:57N 42°23' W 071°03'0 0.0
2017-Dec-07 06:30N 42°23' W 071°03'0 0.0
2017-Dec-07 05:54N 42°23' W 071°03'0 0.0
2017-Dec-07 05:24N 42°23' W 071°03'0 0.0
2017-Dec-07 05:00N 42°23' W 071°03'0 0.0
2017-Dec-07 04:30N 42°23' W 071°03'0 0.0
2017-Dec-07 04:00N 42°23' W 071°03'0 0.0
2017-Dec-07 03:27N 42°23' W 071°03'0 0.0
2017-Dec-07 02:03N 42°23' W 071°03'0 0.0
2017-Dec-07 01:51N 42°23' W 071°03'0 0.0
2017-Dec-07 01:15N 42°23' W 071°03'0 0.0
2017-Dec-07 00:51N 42°23' W 071°03'0 0.0
2017-Dec-07 00:27N 42°23' W 071°03'0 0.0
2017-Dec-07 00:00N 42°23' W 071°03'0 0.0
2017-Dec-06 23:30N 42°23' W 071°03'0 0.0
2017-Dec-06 23:00N 42°23' W 071°03'0 0.0
2017-Dec-06 22:30N 42°23' W 071°03'0 0.0
2017-Dec-06 21:57N 42°23' W 071°03'0 0.0
2017-Dec-06 20:45N 42°23' W 071°03'  
2017-Dec-04 10:24N 42°23' W 071°03'0 0.0
2017-Dec-04 09:57N 42°23' W 071°03'0 0.0
2017-Dec-04 09:27N 42°23' W 071°03'0 0.0
2017-Dec-04 09:00N 42°23' W 071°03'0 0.0
2017-Dec-04 08:27N 42°23' W 071°03'0 0.0
2017-Dec-04 07:21N 42°23' W 071°03'0 0.0
2017-Dec-04 04:15N 42°23' W 071°03'0 0.0
2017-Dec-04 03:57N 42°23' W 071°03'0 0.0
2017-Dec-04 03:27N 42°23' W 071°03'0 0.0
2017-Dec-04 02:57N 42°23' W 071°03'0 0.0
2017-Dec-04 02:09N 42°23' W 071°03'0 0.0
2017-Dec-04 01:57N 42°23' W 071°03'0 0.0
2017-Dec-04 01:09N 42°23' W 071°03'0 0.0
2017-Dec-04 00:54N 42°23' W 071°03'0 0.0
2017-Dec-04 00:30N 42°23' W 071°03'0 0.0
2017-Dec-03 23:57N 42°23' W 071°03'0 0.0
2017-Dec-03 23:24N 42°23' W 071°03'0 0.0
2017-Dec-03 23:00N 42°23' W 071°03'0 0.7
2017-Dec-03 22:30N 42°23' W 071°03'4 8.3
2017-Dec-03 22:00N 42°20' W 070°58'5 9.1
2017-Dec-03 21:30N 42°23' W 070°54'4 8.1
2017-Dec-03 21:00N 42°26' W 070°51'1 2.5
2017-Dec-03 20:30N 42°26' W 070°52'1 1.1
2017-Dec-03 20:00N 42°26' W 070°51'0 0.7
2017-Dec-03 19:30N 42°26' W 070°52'0 0.4
2017-Dec-03 19:00N 42°27' W 070°52'0 1.0
2017-Dec-03 18:30N 42°27' W 070°51'0 0.3
2017-Dec-03 18:00N 42°27' W 070°51'0 0.9
2017-Dec-03 17:30N 42°26' W 070°51'0 0.6
2017-Dec-03 17:00N 42°26' W 070°51'0 0.3
2017-Dec-03 16:30N 42°26' W 070°51'0 0.6
2017-Dec-03 16:00N 42°26' W 070°51'0 0.3
2017-Dec-03 15:29N 42°26' W 070°51'0 0.2
2017-Dec-03 15:00N 42°26' W 070°51'4 8.8
2017-Dec-03 14:30N 42°23' W 070°55'4 8.6
2017-Dec-03 13:59N 42°20' W 070°59'4 7.8
2017-Dec-03 13:30N 42°23' W 071°03'0 0.7
2017-Dec-03 13:00N 42°23' W 071°03'0 0.0
2017-Dec-03 12:30N 42°23' W 071°03'0 0.0
2017-Dec-03 12:00N 42°23' W 071°03'0 0.0
2017-Dec-03 11:30N 42°23' W 071°03'0 0.0
2017-Dec-03 10:59N 42°23' W 071°03'0 0.0
2017-Dec-03 10:29N 42°23' W 071°03'0 0.0
2017-Dec-03 09:59N 42°23' W 071°03'0 0.0
2017-Dec-03 09:30N 42°23' W 071°03'0 0.0
2017-Dec-03 08:52N 42°23' W 071°03'0 0.0
2017-Dec-03 08:29N 42°23' W 071°03'0 0.0
2017-Dec-03 08:00N 42°23' W 071°03'0 0.0
2017-Dec-03 07:30N 42°23' W 071°03'0 0.0
2017-Dec-03 07:00N 42°23' W 071°03'0 0.0
2017-Dec-03 06:30N 42°23' W 071°03'0 0.0
2017-Dec-03 06:00N 42°23' W 071°03'0 0.0
2017-Dec-03 05:30N 42°23' W 071°03'0 0.0
2017-Dec-03 05:00N 42°23' W 071°03'0 0.0
2017-Dec-03 04:30N 42°23' W 071°03'0 0.0
2017-Dec-03 04:00N 42°23' W 071°03'0 0.0
2017-Dec-03 03:30N 42°23' W 071°03'0 0.0
2017-Dec-03 03:00N 42°23' W 071°03'0 0.0
2017-Dec-03 02:30N 42°23' W 071°03'0 0.0
2017-Dec-03 02:00N 42°23' W 071°03'0 0.0
2017-Dec-03 01:30N 42°23' W 071°03'0 0.0
2017-Dec-03 01:00N 42°23' W 071°03'0 0.0
2017-Dec-03 00:30N 42°23' W 071°03'0 0.0
2017-Dec-03 00:00N 42°23' W 071°03'0 0.0
2017-Dec-02 23:30N 42°23' W 071°03'0 0.0
2017-Dec-02 23:00N 42°23' W 071°03'0 0.0
2017-Dec-02 22:31N 42°23' W 071°03'0 0.0
2017-Dec-02 22:00N 42°23' W 071°03'0 0.0
2017-Dec-02 21:30N 42°23' W 071°03'0 0.0
2017-Dec-02 21:00N 42°23' W 071°03'0 0.0
2017-Dec-02 20:30N 42°23' W 071°03'0 0.0
2017-Dec-02 20:00N 42°23' W 071°03'0 0.0
2017-Dec-02 19:30N 42°23' W 071°03'0 0.0
2017-Dec-02 19:00N 42°23' W 071°03'0 0.0
2017-Dec-02 18:30N 42°23' W 071°03'0 0.0
2017-Dec-02 18:00N 42°23' W 071°03'0 0.0
2017-Dec-02 17:30N 42°23' W 071°03'0 0.0
2017-Dec-02 17:00N 42°23' W 071°03'0 0.0
2017-Dec-02 16:30N 42°23' W 071°03'0 0.0
2017-Dec-02 16:00N 42°23' W 071°03'0 0.0
2017-Dec-02 15:30N 42°23' W 071°03'0 0.0
2017-Dec-02 15:00N 42°23' W 071°03'0 0.0
2017-Dec-02 14:30N 42°23' W 071°03'0 0.0
2017-Dec-02 14:00N 42°23' W 071°03'0 0.0
2017-Dec-02 13:30N 42°23' W 071°03'0 0.0
2017-Dec-02 13:00N 42°23' W 071°03'0 0.0
2017-Dec-02 12:30N 42°23' W 071°03'0 0.0
2017-Dec-02 12:00N 42°23' W 071°03'0 0.0
2017-Dec-02 11:30N 42°23' W 071°03'0 0.0
2017-Dec-02 11:00N 42°23' W 071°03'0 0.0
2017-Dec-02 10:30N 42°23' W 071°03'0 0.0
2017-Dec-02 10:00N 42°23' W 071°03'0 0.0
2017-Dec-02 09:30N 42°23' W 071°03'0 0.0
2017-Dec-02 09:00N 42°23' W 071°03'0 0.0
2017-Dec-02 08:28N 42°23' W 071°03'0 0.0
2017-Dec-02 08:00N 42°23' W 071°03'0 0.0
2017-Dec-02 07:30N 42°23' W 071°03'0 0.0
2017-Dec-02 07:00N 42°23' W 071°03'0 0.0
2017-Dec-02 06:30N 42°23' W 071°03'0 0.0
2017-Dec-02 06:01N 42°23' W 071°03'0 0.0
2017-Dec-02 05:30N 42°23' W 071°03'0 0.0
2017-Dec-02 05:00N 42°23' W 071°03'0 0.0
2017-Dec-02 04:30N 42°23' W 071°03'0 0.0
2017-Dec-02 04:00N 42°23' W 071°03'0 0.0
2017-Dec-02 03:30N 42°23' W 071°03'0 0.0
2017-Dec-02 03:00N 42°23' W 071°03'0 0.0
2017-Dec-02 02:30N 42°23' W 071°03'0 0.0
2017-Dec-02 02:00N 42°23' W 071°03'0 0.0
2017-Dec-02 01:30N 42°23' W 071°03'0 0.0
2017-Dec-02 01:00N 42°23' W 071°03'0 0.0
2017-Dec-02 00:30N 42°23' W 071°03'0 0.0
2017-Dec-02 00:00N 42°23' W 071°03'0 0.0
2017-Dec-01 23:30N 42°23' W 071°03'0 0.0
2017-Dec-01 23:00N 42°23' W 071°03'0 0.0
2017-Dec-01 22:29N 42°23' W 071°03'0 0.0
2017-Dec-01 22:00N 42°23' W 071°03'0 0.0
2017-Dec-01 21:30N 42°23' W 071°03'0 0.0
2017-Dec-01 21:00N 42°23' W 071°03'0 0.0
2017-Dec-01 20:30N 42°23' W 071°03'0 0.0
2017-Dec-01 20:00N 42°23' W 071°03'0 0.0
2017-Dec-01 19:29N 42°23' W 071°03'0 0.0
2017-Dec-01 19:00N 42°23' W 071°03'0 0.0
2017-Dec-01 18:24N 42°23' W 071°03'0 0.0
2017-Dec-01 17:55N 42°23' W 071°03'0 0.0
2017-Dec-01 17:18N 42°23' W 071°03'0 0.0
2017-Dec-01 16:44N 42°23' W 071°03'0 0.0
2017-Dec-01 16:27N 42°23' W 071°03'0 0.0
2017-Dec-01 15:26N 42°23' W 071°03'0 0.0
2017-Dec-01 14:58N 42°23' W 071°03'0 0.0
2017-Dec-01 14:30N 42°23' W 071°03'  

Dump ship's entire track history